sensor_id;sensor_type;location;lat;lon;timestamp;pressure;altitude;pressure_sealevel;temperature;humidity
72636;BME280;60679;48.888;15.544;2022-12-07T00:01:13;95944.31;;;0.66;nan
72636;BME280;60679;48.888;15.544;2022-12-07T00:03:41;95947.81;;;0.67;nan
72636;BME280;60679;48.888;15.544;2022-12-07T00:06:08;95951.28;;;0.67;nan
72636;BME280;60679;48.888;15.544;2022-12-07T00:08:34;95939.00;;;0.66;nan
72636;BME280;60679;48.888;15.544;2022-12-07T00:13:30;95943.97;;;0.69;nan
72636;BME280;60679;48.888;15.544;2022-12-07T00:16:03;95946.63;;;0.69;nan
72636;BME280;60679;48.888;15.544;2022-12-07T00:18:29;95943.13;;;0.69;nan
72636;BME280;60679;48.888;15.544;2022-12-07T00:21:08;95937.81;;;0.69;nan
72636;BME280;60679;48.888;15.544;2022-12-07T00:23:34;95939.66;;;0.68;nan
72636;BME280;60679;48.888;15.544;2022-12-07T00:28:52;95943.31;;;0.67;nan
72636;BME280;60679;48.888;15.544;2022-12-07T00:31:19;95939.84;;;0.67;nan
72636;BME280;60679;48.888;15.544;2022-12-07T00:33:46;95941.84;;;0.65;nan
72636;BME280;60679;48.888;15.544;2022-12-07T00:36:17;95936.53;;;0.65;nan
72636;BME280;60679;48.888;15.544;2022-12-07T00:38:43;95940.81;;;0.66;nan
72636;BME280;60679;48.888;15.544;2022-12-07T00:41:16;95929.38;;;0.65;nan
72636;BME280;60679;48.888;15.544;2022-12-07T00:43:43;95936.34;;;0.66;nan
72636;BME280;60679;48.888;15.544;2022-12-07T00:46:10;95934.53;;;0.67;nan
72636;BME280;60679;48.888;15.544;2022-12-07T00:48:35;95947.16;;;0.65;nan
72636;BME280;60679;48.888;15.544;2022-12-07T00:51:02;95935.03;;;0.62;nan
72636;BME280;60679;48.888;15.544;2022-12-07T00:53:27;95934.22;;;0.62;nan
72636;BME280;60679;48.888;15.544;2022-12-07T00:55:57;95943.03;;;0.62;nan
72636;BME280;60679;48.888;15.544;2022-12-07T00:58:23;95931.38;;;0.63;nan
72636;BME280;60679;48.888;15.544;2022-12-07T01:00:49;95935.84;;;0.63;nan
72636;BME280;60679;48.888;15.544;2022-12-07T01:03:15;95936.69;;;0.63;nan
72636;BME280;60679;48.888;15.544;2022-12-07T01:05:50;95933.19;;;0.63;nan
72636;BME280;60679;48.888;15.544;2022-12-07T01:08:15;95932.22;;;0.64;nan
72636;BME280;60679;48.888;15.544;2022-12-07T01:10:41;95938.34;;;0.64;nan
72636;BME280;60679;48.888;15.544;2022-12-07T01:13:06;95935.84;;;0.63;nan
72636;BME280;60679;48.888;15.544;2022-12-07T01:15:31;95930.88;;;0.59;nan
72636;BME280;60679;48.888;15.544;2022-12-07T01:17:57;95943.03;;;0.62;nan
72636;BME280;60679;48.888;15.544;2022-12-07T01:20:22;95942.00;;;0.63;nan
72636;BME280;60679;48.888;15.544;2022-12-07T01:22:48;95940.81;;;0.66;nan
72636;BME280;60679;48.888;15.544;2022-12-07T01:25:13;95947.63;;;0.68;nan
72636;BME280;60679;48.888;15.544;2022-12-07T01:27:38;95943.97;;;0.69;nan
72636;BME280;60679;48.888;15.544;2022-12-07T01:30:06;95948.31;;;0.70;nan
72636;BME280;60679;48.888;15.544;2022-12-07T01:32:32;95944.81;;;0.70;nan
72636;BME280;60679;48.888;15.544;2022-12-07T01:34:58;95947.47;;;0.70;nan
72636;BME280;60679;48.888;15.544;2022-12-07T01:37:23;95945.47;;;0.72;nan
72636;BME280;60679;48.888;15.544;2022-12-07T01:39:52;95940.78;;;0.74;nan
72636;BME280;60679;48.888;15.544;2022-12-07T01:42:18;95933.84;;;0.73;nan
72636;BME280;60679;48.888;15.544;2022-12-07T01:47:47;95927.84;;;0.71;nan
72636;BME280;60679;48.888;15.544;2022-12-07T01:50:15;95924.06;;;0.73;nan
72636;BME280;60679;48.888;15.544;2022-12-07T01:52:41;95921.41;;;0.73;nan
72636;BME280;60679;48.888;15.544;2022-12-07T01:55:11;95929.38;;;0.73;nan
72636;BME280;60679;48.888;15.544;2022-12-07T01:57:41;95927.34;;;0.75;nan
72636;BME280;60679;48.888;15.544;2022-12-07T02:00:09;95936.16;;;0.76;nan
72636;BME280;60679;48.888;15.544;2022-12-07T02:02:38;95931.69;;;0.76;nan
72636;BME280;60679;48.888;15.544;2022-12-07T02:05:07;95927.16;;;0.77;nan
72636;BME280;60679;48.888;15.544;2022-12-07T02:07:34;95928.00;;;0.77;nan
72636;BME280;60679;48.888;15.544;2022-12-07T02:10:20;95930.66;;;0.77;nan
72636;BME280;60679;48.888;15.544;2022-12-07T02:12:49;95920.88;;;0.78;nan
72636;BME280;60679;48.888;15.544;2022-12-07T02:15:17;95924.50;;;0.77;nan
72636;BME280;60679;48.888;15.544;2022-12-07T02:18:14;95922.69;;;0.77;nan
72636;BME280;60679;48.888;15.544;2022-12-07T02:23:39;95916.53;;;0.77;nan
72636;BME280;60679;48.888;15.544;2022-12-07T02:31:34;95919.88;;;0.79;nan
72636;BME280;60679;48.888;15.544;2022-12-07T02:34:08;95921.50;;;0.80;nan
72636;BME280;60679;48.888;15.544;2022-12-07T02:36:39;95911.06;;;0.78;nan
72636;BME280;60679;48.888;15.544;2022-12-07T02:39:17;95915.56;;;0.78;nan
72636;BME280;60679;48.888;15.544;2022-12-07T02:41:48;95914.38;;;0.80;nan
72636;BME280;60679;48.888;15.544;2022-12-07T02:44:23;95925.84;;;0.81;nan
72636;BME280;60679;48.888;15.544;2022-12-07T02:46:53;95920.69;;;0.79;nan
72636;BME280;60679;48.888;15.544;2022-12-07T02:49:22;95924.16;;;0.80;nan
72636;BME280;60679;48.888;15.544;2022-12-07T02:51:48;95916.53;;;0.77;nan
72636;BME280;60679;48.888;15.544;2022-12-07T02:54:17;95916.72;;;0.75;nan
72636;BME280;60679;48.888;15.544;2022-12-07T02:56:57;95915.91;;;0.75;nan
72636;BME280;60679;48.888;15.544;2022-12-07T03:08:25;95923.91;;;0.67;nan
72636;BME280;60679;48.888;15.544;2022-12-07T03:11:06;95931.69;;;0.68;nan
72636;BME280;60679;48.888;15.544;2022-12-07T03:13:56;95922.72;;;0.69;nan
72636;BME280;60679;48.888;15.544;2022-12-07T03:16:35;95921.06;;;0.68;nan
72636;BME280;60679;48.888;15.544;2022-12-07T03:19:14;95920.25;;;0.68;nan
72636;BME280;60679;48.888;15.544;2022-12-07T03:21:44;95922.22;;;0.66;nan
72636;BME280;60679;48.888;15.544;2022-12-07T03:24:15;95926.91;;;0.64;nan
72636;BME280;60679;48.888;15.544;2022-12-07T03:26:50;95924.44;;;0.62;nan
72636;BME280;60679;48.888;15.544;2022-12-07T03:29:25;95928.06;;;0.61;nan
72636;BME280;60679;48.888;15.544;2022-12-07T03:31:58;95919.25;;;0.61;nan
72636;BME280;60679;48.888;15.544;2022-12-07T03:37:37;95920.78;;;0.55;nan
72636;BME280;60679;48.888;15.544;2022-12-07T03:40:17;95916.78;;;0.51;nan
72636;BME280;60679;48.888;15.544;2022-12-07T03:42:45;95921.31;;;0.50;nan
72636;BME280;60679;48.888;15.544;2022-12-07T03:45:12;95919.63;;;0.49;nan
72636;BME280;60679;48.888;15.544;2022-12-07T03:47:46;95912.66;;;0.48;nan
72636;BME280;60679;48.888;15.544;2022-12-07T03:50:25;95915.16;;;0.50;nan
72636;BME280;60679;48.888;15.544;2022-12-07T03:52:55;95905.72;;;0.47;nan
72636;BME280;60679;48.888;15.544;2022-12-07T03:55:31;95907.53;;;0.47;nan
72636;BME280;60679;48.888;15.544;2022-12-07T03:58:05;95915.50;;;0.47;nan
72636;BME280;60679;48.888;15.544;2022-12-07T04:00:31;95910.34;;;0.45;nan
72636;BME280;60679;48.888;15.544;2022-12-07T04:02:58;95912.34;;;0.43;nan
72636;BME280;60679;48.888;15.544;2022-12-07T04:05:23;95912.34;;;0.43;nan
72636;BME280;60679;48.888;15.544;2022-12-07T04:07:49;95911.50;;;0.43;nan
72636;BME280;60679;48.888;15.544;2022-12-07T04:10:14;95902.56;;;0.44;nan
72636;BME280;60679;48.888;15.544;2022-12-07T04:12:40;95907.88;;;0.44;nan
72636;BME280;60679;48.888;15.544;2022-12-07T04:15:06;95913.19;;;0.44;nan
72636;BME280;60679;48.888;15.544;2022-12-07T04:17:31;95914.00;;;0.44;nan
72636;BME280;60679;48.888;15.544;2022-12-07T04:19:57;95904.03;;;0.46;nan
72636;BME280;60679;48.888;15.544;2022-12-07T04:22:22;95909.34;;;0.46;nan
72636;BME280;60679;48.888;15.544;2022-12-07T04:24:47;95909.19;;;0.48;nan
72636;BME280;60679;48.888;15.544;2022-12-07T04:27:13;95909.84;;;0.50;nan
72636;BME280;60679;48.888;15.544;2022-12-07T04:29:38;95910.50;;;0.52;nan
72636;BME280;60679;48.888;15.544;2022-12-07T04:32:04;95912.16;;;0.53;nan
72636;BME280;60679;48.888;15.544;2022-12-07T04:34:29;95907.84;;;0.52;nan
72636;BME280;60679;48.888;15.544;2022-12-07T04:42:05;95902.38;;;0.53;nan
72636;BME280;60679;48.888;15.544;2022-12-07T04:44:30;95901.69;;;0.51;nan
72636;BME280;60679;48.888;15.544;2022-12-07T04:46:56;95903.69;;;0.49;nan
72636;BME280;60679;48.888;15.544;2022-12-07T04:49:22;95894.06;;;0.48;nan
72636;BME280;60679;48.888;15.544;2022-12-07T04:51:48;95891.59;;;0.47;nan
72636;BME280;60679;48.888;15.544;2022-12-07T04:54:14;95901.56;;;0.45;nan
72636;BME280;60679;48.888;15.544;2022-12-07T04:56:40;95899.06;;;0.43;nan
72636;BME280;60679;48.888;15.544;2022-12-07T04:59:06;95890.25;;;0.43;nan
72636;BME280;60679;48.888;15.544;2022-12-07T05:01:31;95896.41;;;0.43;nan
72636;BME280;60679;48.888;15.544;2022-12-07T05:03:58;95890.25;;;0.43;nan
72636;BME280;60679;48.888;15.544;2022-12-07T05:06:23;95888.63;;;0.42;nan
72636;BME280;60679;48.888;15.544;2022-12-07T05:08:49;95892.09;;;0.42;nan
72636;BME280;60679;48.888;15.544;2022-12-07T05:11:15;95886.97;;;0.41;nan
72636;BME280;60679;48.888;15.544;2022-12-07T05:13:59;95878.00;;;0.42;nan
72636;BME280;60679;48.888;15.544;2022-12-07T05:16:26;95895.56;;;0.43;nan
72636;BME280;60679;48.888;15.544;2022-12-07T05:18:51;95890.44;;;0.41;nan
72636;BME280;60679;48.888;15.544;2022-12-07T05:21:17;95881.66;;;0.41;nan
72636;BME280;60679;48.888;15.544;2022-12-07T05:23:42;95880.81;;;0.40;nan
72636;BME280;60679;48.888;15.544;2022-12-07T05:26:07;95892.47;;;0.39;nan
72636;BME280;60679;48.888;15.544;2022-12-07T05:28:33;95885.47;;;0.38;nan
72636;BME280;60679;48.888;15.544;2022-12-07T05:30:58;95882.47;;;0.41;nan
72636;BME280;60679;48.888;15.544;2022-12-07T05:33:23;95879.84;;;0.41;nan
72636;BME280;60679;48.888;15.544;2022-12-07T05:35:49;95881.47;;;0.42;nan
72636;BME280;60679;48.888;15.544;2022-12-07T05:38:14;95890.25;;;0.43;nan
72636;BME280;60679;48.888;15.544;2022-12-07T05:40:39;95887.78;;;0.41;nan
72636;BME280;60679;48.888;15.544;2022-12-07T05:43:05;95883.31;;;0.42;nan
72636;BME280;60679;48.888;15.544;2022-12-07T05:45:30;95878.81;;;0.42;nan
72636;BME280;60679;48.888;15.544;2022-12-07T05:47:55;95878.16;;;0.40;nan
72636;BME280;60679;48.888;15.544;2022-12-07T05:50:21;95885.47;;;0.38;nan
72636;BME280;60679;48.888;15.544;2022-12-07T05:52:46;95888.13;;;0.38;nan
72636;BME280;60679;48.888;15.544;2022-12-07T05:55:12;95886.31;;;0.39;nan
72636;BME280;60679;48.888;15.544;2022-12-07T05:57:37;95895.75;;;0.41;nan
72636;BME280;60679;48.888;15.544;2022-12-07T06:00:03;95895.56;;;0.43;nan
72636;BME280;60679;48.888;15.544;2022-12-07T06:02:29;95900.88;;;0.43;nan
72636;BME280;60679;48.888;15.544;2022-12-07T06:04:55;95905.22;;;0.44;nan
72636;BME280;60679;48.888;15.544;2022-12-07T06:07:20;95894.75;;;0.42;nan
72636;BME280;60679;48.888;15.544;2022-12-07T06:09:45;95892.47;;;0.39;nan
72636;BME280;60679;48.888;15.544;2022-12-07T06:12:12;95906.38;;;0.41;nan
72636;BME280;60679;48.888;15.544;2022-12-07T06:14:57;95904.56;;;0.42;nan
72636;BME280;60679;48.888;15.544;2022-12-07T06:17:22;95906.38;;;0.41;nan
72636;BME280;60679;48.888;15.544;2022-12-07T06:19:48;95904.91;;;0.39;nan
72636;BME280;60679;48.888;15.544;2022-12-07T06:22:13;95901.41;;;0.38;nan
72636;BME280;60679;48.888;15.544;2022-12-07T06:24:39;95906.53;;;0.40;nan
72636;BME280;60679;48.888;15.544;2022-12-07T06:27:05;95903.06;;;0.39;nan
72636;BME280;60679;48.888;15.544;2022-12-07T06:29:31;95903.06;;;0.39;nan
72636;BME280;60679;48.888;15.544;2022-12-07T06:31:57;95906.53;;;0.40;nan
72636;BME280;60679;48.888;15.544;2022-12-07T06:34:23;95905.72;;;0.39;nan
72636;BME280;60679;48.888;15.544;2022-12-07T06:36:50;95895.13;;;0.39;nan
72636;BME280;60679;48.888;15.544;2022-12-07T06:39:19;95903.06;;;0.39;nan
72636;BME280;60679;48.888;15.544;2022-12-07T06:41:45;95900.25;;;0.41;nan
72636;BME280;60679;48.888;15.544;2022-12-07T06:44:10;95899.59;;;0.39;nan
72636;BME280;60679;48.888;15.544;2022-12-07T06:46:36;95903.41;;;0.36;nan
72636;BME280;60679;48.888;15.544;2022-12-07T06:49:02;95900.09;;;0.34;nan
72636;BME280;60679;48.888;15.544;2022-12-07T06:51:28;95903.75;;;0.33;nan
72636;BME280;60679;48.888;15.544;2022-12-07T06:53:53;95901.75;;;0.35;nan
72636;BME280;60679;48.888;15.544;2022-12-07T06:56:18;95905.88;;;0.38;nan
72636;BME280;60679;48.888;15.544;2022-12-07T06:58:44;95904.91;;;0.39;nan
72636;BME280;60679;48.888;15.544;2022-12-07T07:01:11;95910.38;;;0.37;nan
72636;BME280;60679;48.888;15.544;2022-12-07T07:03:36;95912.19;;;0.37;nan
72636;BME280;60679;48.888;15.544;2022-12-07T07:06:02;95913.84;;;0.38;nan
72636;BME280;60679;48.888;15.544;2022-12-07T07:08:27;95916.34;;;0.39;nan
72636;BME280;60679;48.888;15.544;2022-12-07T07:10:53;95908.84;;;0.43;nan
72636;BME280;60679;48.888;15.544;2022-12-07T07:13:18;95919.97;;;0.46;nan
72636;BME280;60679;48.888;15.544;2022-12-07T07:15:44;95910.69;;;0.50;nan
72636;BME280;60679;48.888;15.544;2022-12-07T07:18:09;95914.63;;;0.54;nan
72636;BME280;60679;48.888;15.544;2022-12-07T07:20:35;95904.50;;;0.58;nan
72636;BME280;60679;48.888;15.544;2022-12-07T07:23:00;95904.31;;;0.59;nan
72636;BME280;60679;48.888;15.544;2022-12-07T07:25:26;95902.16;;;0.63;nan
72636;BME280;60679;48.888;15.544;2022-12-07T07:27:51;95904.66;;;0.65;nan
72636;BME280;60679;48.888;15.544;2022-12-07T07:30:16;95906.78;;;0.69;nan
72636;BME280;60679;48.888;15.544;2022-12-07T07:32:42;95903.94;;;0.71;nan
72636;BME280;60679;48.888;15.544;2022-12-07T07:35:07;95903.44;;;0.75;nan
72636;BME280;60679;48.888;15.544;2022-12-07T07:37:33;95911.72;;;0.80;nan
72636;BME280;60679;48.888;15.544;2022-12-07T07:39:59;95909.56;;;0.84;nan
72636;BME280;60679;48.888;15.544;2022-12-07T07:42:24;95910.38;;;0.84;nan
72636;BME280;60679;48.888;15.544;2022-12-07T07:44:49;95910.84;;;0.88;nan
72636;BME280;60679;48.888;15.544;2022-12-07T07:47:15;95919.94;;;0.93;nan
72636;BME280;60679;48.888;15.544;2022-12-07T07:49:40;95922.47;;;0.95;nan
72636;BME280;60679;48.888;15.544;2022-12-07T07:52:06;95921.94;;;0.99;nan
72636;BME280;60679;48.888;15.544;2022-12-07T07:54:31;95927.72;;;1.03;nan
72636;BME280;60679;48.888;15.544;2022-12-07T07:56:57;95918.56;;;1.05;nan
72636;BME280;60679;48.888;15.544;2022-12-07T07:59:22;95921.53;;;1.10;nan
72636;BME280;60679;48.888;15.544;2022-12-07T08:01:48;95920.34;;;1.13;nan
72636;BME280;60679;48.888;15.544;2022-12-07T08:04:13;95925.16;;;1.17;nan
72636;BME280;60679;48.888;15.544;2022-12-07T08:06:38;95928.97;;;1.23;nan
72636;BME280;60679;48.888;15.544;2022-12-07T08:09:04;95932.56;;;1.30;nan
72636;BME280;60679;48.888;15.544;2022-12-07T08:11:31;95928.50;;;1.42;nan
72636;BME280;60679;48.888;15.544;2022-12-07T08:13:56;95935.09;;;1.54;nan
72636;BME280;60679;48.888;15.544;2022-12-07T08:16:21;95925.50;;;1.68;nan
72636;BME280;60679;48.888;15.544;2022-12-07T08:18:47;95922.63;;;1.78;nan
72636;BME280;60679;48.888;15.544;2022-12-07T08:21:14;95927.44;;;1.97;nan
72636;BME280;60679;48.888;15.544;2022-12-07T08:23:40;95925.72;;;2.04;nan
72636;BME280;60679;48.888;15.544;2022-12-07T08:26:08;95928.72;;;2.01;nan
72636;BME280;60679;48.888;15.544;2022-12-07T08:28:35;95933.91;;;2.02;nan
72636;BME280;60679;48.888;15.544;2022-12-07T08:31:03;95935.97;;;1.92;nan
72636;BME280;60679;48.888;15.544;2022-12-07T08:33:29;95937.63;;;1.93;nan
72636;BME280;60679;48.888;15.544;2022-12-07T08:35:54;95940.06;;;2.17;nan
72636;BME280;60679;48.888;15.544;2022-12-07T08:38:20;95937.91;;;2.36;nan
72636;BME280;60679;48.888;15.544;2022-12-07T08:40:53;95936.59;;;2.31;nan
72636;BME280;60679;48.888;15.544;2022-12-07T08:43:19;95944.50;;;2.25;nan
72636;BME280;60679;48.888;15.544;2022-12-07T08:45:44;95945.38;;;2.55;nan
72636;BME280;60679;48.888;15.544;2022-12-07T08:48:11;95947.59;;;2.51;nan
72636;BME280;60679;48.888;15.544;2022-12-07T08:50:39;95947.50;;;2.59;nan
72636;BME280;60679;48.888;15.544;2022-12-07T08:53:05;95939.84;;;4.29;nan
72636;BME280;60679;48.888;15.544;2022-12-07T08:55:33;95944.75;;;4.81;nan
72636;BME280;60679;48.888;15.544;2022-12-07T08:57:59;95924.69;;;6.78;nan
72636;BME280;60679;48.888;15.544;2022-12-07T09:00:26;95930.25;;;7.98;nan
72636;BME280;60679;48.888;15.544;2022-12-07T09:02:51;95934.22;;;9.01;nan
72636;BME280;60679;48.888;15.544;2022-12-07T09:05:17;95929.53;;;9.87;nan
72636;BME280;60679;48.888;15.544;2022-12-07T09:07:46;95926.00;;;10.46;nan
72636;BME280;60679;48.888;15.544;2022-12-07T09:10:12;95925.75;;;11.00;nan
72636;BME280;60679;48.888;15.544;2022-12-07T09:12:38;95914.88;;;11.35;nan
72636;BME280;60679;48.888;15.544;2022-12-07T09:15:03;95914.78;;;11.42;nan
72636;BME280;60679;48.888;15.544;2022-12-07T09:17:32;95919.13;;;11.43;nan
72636;BME280;60679;48.888;15.544;2022-12-07T09:19:58;95925.47;;;11.48;nan
72636;BME280;60679;48.888;15.544;2022-12-07T09:22:23;95922.34;;;11.80;nan
72636;BME280;60679;48.888;15.544;2022-12-07T09:24:49;95919.13;;;11.43;nan
72636;BME280;60679;48.888;15.544;2022-12-07T09:27:14;95929.34;;;11.18;nan
72636;BME280;60679;48.888;15.544;2022-12-07T09:29:41;95927.00;;;11.33;nan
72636;BME280;60679;48.888;15.544;2022-12-07T09:32:07;95921.25;;;10.18;nan
72636;BME280;60679;48.888;15.544;2022-12-07T09:34:32;95927.88;;;9.86;nan
72636;BME280;60679;48.888;15.544;2022-12-07T09:36:57;95926.66;;;10.83;nan
72636;BME280;60679;48.888;15.544;2022-12-07T09:39:23;95929.53;;;10.47;nan
72636;BME280;60679;48.888;15.544;2022-12-07T09:41:48;95918.78;;;10.93;nan
72636;BME280;60679;48.888;15.544;2022-12-07T09:44:20;95916.09;;;11.16;nan
72636;BME280;60679;48.888;15.544;2022-12-07T09:46:47;95916.56;;;11.25;nan
72636;BME280;60679;48.888;15.544;2022-12-07T09:49:23;95915.13;;;12.25;nan
72636;BME280;60679;48.888;15.544;2022-12-07T09:52:01;95910.16;;;12.50;nan
72636;BME280;60679;48.888;15.544;2022-12-07T09:54:26;95908.47;;;11.88;nan
72636;BME280;60679;48.888;15.544;2022-12-07T09:56:52;95905.72;;;11.36;nan
72636;BME280;60679;48.888;15.544;2022-12-07T09:59:18;95904.63;;;12.00;nan
72636;BME280;60679;48.888;15.544;2022-12-07T10:01:46;95904.78;;;13.17;nan
72636;BME280;60679;48.888;15.544;2022-12-07T10:04:24;95908.63;;;13.81;nan
72636;BME280;60679;48.888;15.544;2022-12-07T10:06:51;95900.97;;;13.35;nan
72636;BME280;60679;48.888;15.544;2022-12-07T10:09:19;95899.56;;;13.70;nan
72636;BME280;60679;48.888;15.544;2022-12-07T10:14:23;95897.88;;;14.13;nan
72636;BME280;60679;48.888;15.544;2022-12-07T10:16:48;95896.13;;;14.02;nan
72636;BME280;60679;48.888;15.544;2022-12-07T10:19:30;95891.41;;;13.70;nan
72636;BME280;60679;48.888;15.544;2022-12-07T10:22:11;95905.03;;;13.75;nan
72636;BME280;60679;48.888;15.544;2022-12-07T10:24:38;95890.72;;;13.03;nan
72636;BME280;60679;48.888;15.544;2022-12-07T10:27:30;95887.41;;;11.90;nan
72636;BME280;60679;48.888;15.544;2022-12-07T10:29:57;95880.25;;;11.84;nan
72636;BME280;60679;48.888;15.544;2022-12-07T10:32:31;95881.75;;;12.36;nan
72636;BME280;60679;48.888;15.544;2022-12-07T10:37:41;95871.19;;;14.53;nan
72636;BME280;60679;48.888;15.544;2022-12-07T10:43:03;95866.75;;;15.16;nan
72636;BME280;60679;48.888;15.544;2022-12-07T10:45:30;95863.41;;;14.98;nan
72636;BME280;60679;48.888;15.544;2022-12-07T10:48:00;95864.72;;;15.38;nan
72636;BME280;60679;48.888;15.544;2022-12-07T11:06:39;95856.97;;;15.56;nan
72636;BME280;60679;48.888;15.544;2022-12-07T11:09:29;95855.31;;;15.55;nan
72636;BME280;60679;48.888;15.544;2022-12-07T11:12:35;95848.34;;;15.33;nan
72636;BME280;60679;48.888;15.544;2022-12-07T11:18:06;95850.69;;;15.56;nan
72636;BME280;60679;48.888;15.544;2022-12-07T11:33:41;95839.13;;;17.77;nan
72636;BME280;60679;48.888;15.544;2022-12-07T11:36:24;95830.88;;;16.68;nan
72636;BME280;60679;48.888;15.544;2022-12-07T11:39:08;95835.56;;;13.09;nan
72636;BME280;60679;48.888;15.544;2022-12-07T11:41:38;95833.72;;;11.70;nan
72636;BME280;60679;48.888;15.544;2022-12-07T11:44:27;95839.09;;;11.30;nan
72636;BME280;60679;48.888;15.544;2022-12-07T11:52:16;95826.38;;;10.68;nan
72636;BME280;60679;48.888;15.544;2022-12-07T11:54:43;95827.78;;;10.82;nan
72636;BME280;60679;48.888;15.544;2022-12-07T11:57:39;95819.69;;;14.15;nan
72636;BME280;60679;48.888;15.544;2022-12-07T12:00:08;95812.88;;;17.81;nan
72636;BME280;60679;48.888;15.544;2022-12-07T12:03:01;95815.94;;;15.73;nan
72636;BME280;60679;48.888;15.544;2022-12-07T12:05:29;95813.50;;;13.22;nan
72636;BME280;60679;48.888;15.544;2022-12-07T12:08:12;95822.25;;;10.88;nan
72636;BME280;60679;48.888;15.544;2022-12-07T12:21:31;95822.97;;;9.66;nan
72636;BME280;60679;48.888;15.544;2022-12-07T12:24:10;95826.03;;;10.11;nan
72636;BME280;60679;48.888;15.544;2022-12-07T12:26:37;95821.75;;;9.51;nan
72636;BME280;60679;48.888;15.544;2022-12-07T12:29:06;95823.59;;;9.02;nan
72636;BME280;60679;48.888;15.544;2022-12-07T12:31:47;95826.97;;;8.37;nan
72636;BME280;60679;48.888;15.544;2022-12-07T12:42:53;95815.72;;;7.28;nan
72636;BME280;60679;48.888;15.544;2022-12-07T12:45:30;95823.00;;;7.14;nan
72636;BME280;60679;48.888;15.544;2022-12-07T12:47:59;95811.22;;;7.22;nan
72636;BME280;60679;48.888;15.544;2022-12-07T12:50:30;95814.81;;;7.03;nan
72636;BME280;60679;48.888;15.544;2022-12-07T12:58:22;95817.84;;;7.19;nan
72636;BME280;60679;48.888;15.544;2022-12-07T13:04:00;95819.22;;;7.66;nan
72636;BME280;60679;48.888;15.544;2022-12-07T13:08:53;95815.44;;;6.21;nan
72636;BME280;60679;48.888;15.544;2022-12-07T13:13:50;95822.22;;;5.04;nan
72636;BME280;60679;48.888;15.544;2022-12-07T13:18:41;95831.06;;;4.23;nan
72636;BME280;60679;48.888;15.544;2022-12-07T13:23:39;95833.56;;;3.75;nan
72636;BME280;60679;48.888;15.544;2022-12-07T13:31:37;95833.94;;;3.51;nan
72636;BME280;60679;48.888;15.544;2022-12-07T13:34:27;95839.16;;;3.38;nan
72636;BME280;60679;48.888;15.544;2022-12-07T13:36:50;95835.84;;;3.36;nan
72636;BME280;60679;48.888;15.544;2022-12-07T13:39:21;95837.34;;;3.38;nan
72636;BME280;60679;48.888;15.544;2022-12-07T13:41:58;95839.09;;;3.31;nan
72636;BME280;60679;48.888;15.544;2022-12-07T13:44:26;95842.25;;;3.20;nan
72636;BME280;60679;48.888;15.544;2022-12-07T13:49:47;95848.00;;;3.03;nan
72636;BME280;60679;48.888;15.544;2022-12-07T13:55:01;95852.56;;;2.87;nan
72636;BME280;60679;48.888;15.544;2022-12-07T13:57:29;95851.16;;;2.77;nan
72636;BME280;60679;48.888;15.544;2022-12-07T13:59:56;95855.25;;;2.73;nan
72636;BME280;60679;48.888;15.544;2022-12-07T14:02:28;95856.97;;;2.66;nan
72636;BME280;60679;48.888;15.544;2022-12-07T14:05:32;95849.72;;;2.60;nan
72636;BME280;60679;48.888;15.544;2022-12-07T14:07:59;95850.28;;;2.55;nan
72636;BME280;60679;48.888;15.544;2022-12-07T14:10:27;95852.03;;;2.48;nan
72636;BME280;60679;48.888;15.544;2022-12-07T14:12:53;95845.22;;;2.46;nan
72636;BME280;60679;48.888;15.544;2022-12-07T14:15:22;95844.94;;;2.41;nan
72636;BME280;60679;48.888;15.544;2022-12-07T14:17:53;95843.69;;;2.37;nan
72636;BME280;60679;48.888;15.544;2022-12-07T14:20:48;95850.56;;;2.31;nan
72636;BME280;60679;48.888;15.544;2022-12-07T14:23:40;95854.59;;;2.27;nan
72636;BME280;60679;48.888;15.544;2022-12-07T14:28:38;95858.34;;;2.18;nan
72636;BME280;60679;48.888;15.544;2022-12-07T14:31:12;95855.25;;;2.14;nan
72636;BME280;60679;48.888;15.544;2022-12-07T14:33:39;95860.09;;;2.11;nan
72636;BME280;60679;48.888;15.544;2022-12-07T14:36:05;95860.25;;;2.09;nan
72636;BME280;60679;48.888;15.544;2022-12-07T14:38:31;95852.00;;;2.04;nan
72636;BME280;60679;48.888;15.544;2022-12-07T14:40:56;95847.88;;;2.02;nan
72636;BME280;60679;48.888;15.544;2022-12-07T14:43:42;95849.88;;;2.00;nan
72636;BME280;60679;48.888;15.544;2022-12-07T14:46:09;95843.91;;;1.98;nan
72636;BME280;60679;48.888;15.544;2022-12-07T14:48:34;95846.94;;;1.95;nan
72636;BME280;60679;48.888;15.544;2022-12-07T14:50:59;95853.44;;;1.92;nan
72636;BME280;60679;48.888;15.544;2022-12-07T14:53:30;95846.66;;;1.90;nan
72636;BME280;60679;48.888;15.544;2022-12-07T14:55:58;95838.38;;;1.85;nan
72636;BME280;60679;48.888;15.544;2022-12-07T14:58:24;95839.75;;;1.81;nan
72636;BME280;60679;48.888;15.544;2022-12-07T15:00:49;95837.00;;;1.74;nan
72636;BME280;60679;48.888;15.544;2022-12-07T15:03:14;95841.84;;;1.70;nan
72636;BME280;60679;48.888;15.544;2022-12-07T15:05:40;95843.84;;;1.68;nan
72636;BME280;60679;48.888;15.544;2022-12-07T15:08:08;95838.69;;;1.67;nan
72636;BME280;60679;48.888;15.544;2022-12-07T15:10:34;95839.06;;;1.64;nan
72636;BME280;60679;48.888;15.544;2022-12-07T15:13:04;95844.38;;;1.64;nan
72636;BME280;60679;48.888;15.544;2022-12-07T15:15:49;95845.56;;;1.61;nan
72636;BME280;60679;48.888;15.544;2022-12-07T15:18:16;95852.91;;;1.59;nan
72636;BME280;60679;48.888;15.544;2022-12-07T15:20:42;95851.44;;;1.57;nan
72636;BME280;60679;48.888;15.544;2022-12-07T15:23:07;95844.63;;;1.54;nan
72636;BME280;60679;48.888;15.544;2022-12-07T15:25:33;95849.13;;;1.54;nan
72636;BME280;60679;48.888;15.544;2022-12-07T15:27:59;95856.47;;;1.52;nan
72636;BME280;60679;48.888;15.544;2022-12-07T15:30:24;95851.50;;;1.49;nan
72636;BME280;60679;48.888;15.544;2022-12-07T15:32:50;95852.69;;;1.46;nan
72636;BME280;60679;48.888;15.544;2022-12-07T15:35:16;95845.91;;;1.44;nan
72636;BME280;60679;48.888;15.544;2022-12-07T15:37:41;95853.19;;;1.42;nan
72636;BME280;60679;48.888;15.544;2022-12-07T15:40:07;95844.59;;;1.40;nan